sensor_id;sensor_type;location;lat;lon;timestamp;pressure;altitude;pressure_sealevel;temperature;humidity
42067;BME280;27734;47.028;28.820;2023-02-01T00:00:28;100112.66;;;2.32;83.08
42067;BME280;27734;47.028;28.820;2023-02-01T00:03:20;100103.97;;;2.32;82.39
42067;BME280;27734;47.028;28.820;2023-02-01T00:05:57;100106.55;;;2.32;82.92
42067;BME280;27734;47.028;28.820;2023-02-01T00:08:29;100108.36;;;2.33;82.74
42067;BME280;27734;47.028;28.820;2023-02-01T00:11:01;100104.88;;;2.32;82.86
42067;BME280;27734;47.028;28.820;2023-02-01T00:13:35;100109.14;;;2.32;82.44
42067;BME280;27734;47.028;28.820;2023-02-01T00:16:09;100103.88;;;2.30;82.46
42067;BME280;27734;47.028;28.820;2023-02-01T00:18:42;100099.61;;;2.31;82.67
42067;BME280;27734;47.028;28.820;2023-02-01T00:21:13;100097.81;;;2.30;82.99
42067;BME280;27734;47.028;28.820;2023-02-01T00:23:45;100091.66;;;2.28;82.46
42067;BME280;27734;47.028;28.820;2023-02-01T00:26:18;100095.03;;;2.27;82.36
42067;BME280;27734;47.028;28.820;2023-02-01T00:28:50;100095.81;;;2.26;82.27
42067;BME280;27734;47.028;28.820;2023-02-01T00:31:21;100084.58;;;2.25;82.38
42067;BME280;27734;47.028;28.820;2023-02-01T00:33:53;100089.85;;;2.27;82.64
42067;BME280;27734;47.028;28.820;2023-02-01T00:36:24;100088.14;;;2.27;82.31
42067;BME280;27734;47.028;28.820;2023-02-01T00:38:55;100085.65;;;2.29;82.59
42067;BME280;27734;47.028;28.820;2023-02-01T00:41:27;100082.27;;;2.30;82.98
42067;BME280;27734;47.028;28.820;2023-02-01T00:43:58;100063.36;;;2.31;82.65
42067;BME280;27734;47.028;28.820;2023-02-01T00:46:30;100041.73;;;2.30;82.91
42067;BME280;27734;47.028;28.820;2023-02-01T00:49:02;100048.52;;;2.28;82.00
42067;BME280;27734;47.028;28.820;2023-02-01T00:51:33;100053.60;;;2.27;82.82
42067;BME280;27734;47.028;28.820;2023-02-01T00:54:05;100044.77;;;2.23;82.71
42067;BME280;27734;47.028;28.820;2023-02-01T00:56:37;100054.20;;;2.23;82.64
42067;BME280;27734;47.028;28.820;2023-02-01T00:59:10;100079.91;;;2.20;82.17
42067;BME280;27734;47.028;28.820;2023-02-01T01:01:41;100086.69;;;2.18;82.49
42067;BME280;27734;47.028;28.820;2023-02-01T01:04:12;100084.70;;;2.13;81.66
42067;BME280;27734;47.028;28.820;2023-02-01T01:06:44;100081.85;;;2.09;81.97
42067;BME280;27734;47.028;28.820;2023-02-01T01:09:15;100086.84;;;2.06;82.64
42067;BME280;27734;47.028;28.820;2023-02-01T01:11:46;100078.97;;;2.04;81.71
42067;BME280;27734;47.028;28.820;2023-02-01T01:14:18;100073.60;;;2.01;82.49
42067;BME280;27734;47.028;28.820;2023-02-01T01:16:49;100070.73;;;1.96;81.92
42067;BME280;27734;47.028;28.820;2023-02-01T01:19:20;100066.93;;;1.91;81.58
42067;BME280;27734;47.028;28.820;2023-02-01T01:21:52;100064.25;;;1.90;81.87
42067;BME280;27734;47.028;28.820;2023-02-01T01:24:23;100067.55;;;1.87;81.36
42067;BME280;27734;47.028;28.820;2023-02-01T01:26:54;100070.83;;;1.85;81.74
42067;BME280;27734;47.028;28.820;2023-02-01T01:29:26;100066.34;;;1.82;81.86
42067;BME280;27734;47.028;28.820;2023-02-01T01:31:57;100073.03;;;1.78;81.80
42067;BME280;27734;47.028;28.820;2023-02-01T01:34:28;100069.36;;;1.75;81.70
42067;BME280;27734;47.028;28.820;2023-02-01T01:36:59;100068.25;;;1.71;81.65
42067;BME280;27734;47.028;28.820;2023-02-01T01:39:31;100063.80;;;1.69;81.05
42067;BME280;27734;47.028;28.820;2023-02-01T01:42:02;100067.85;;;1.65;81.33
42067;BME280;27734;47.028;28.820;2023-02-01T01:44:59;100071.06;;;1.61;81.20
42067;BME280;27734;47.028;28.820;2023-02-01T01:47:35;100070.86;;;1.58;81.46
42067;BME280;27734;47.028;28.820;2023-02-01T01:50:12;100070.56;;;1.53;81.58
42067;BME280;27734;47.028;28.820;2023-02-01T01:52:48;100072.06;;;1.50;81.60
42067;BME280;27734;47.028;28.820;2023-02-01T01:55:21;100073.64;;;1.48;81.57
42067;BME280;27734;47.028;28.820;2023-02-01T01:57:57;100073.44;;;1.44;81.17
42067;BME280;27734;47.028;28.820;2023-02-01T02:00:31;100070.65;;;1.41;81.76
42067;BME280;27734;47.028;28.820;2023-02-01T02:03:06;100066.30;;;1.40;81.08
42067;BME280;27734;47.028;28.820;2023-02-01T02:05:38;100072.16;;;1.38;81.63
42067;BME280;27734;47.028;28.820;2023-02-01T02:08:11;100067.47;;;1.32;81.44
42067;BME280;27734;47.028;28.820;2023-02-01T02:10:43;100073.25;;;1.28;81.33
42067;BME280;27734;47.028;28.820;2023-02-01T02:13:34;100076.31;;;1.22;80.96
42067;BME280;27734;47.028;28.820;2023-02-01T02:16:18;100072.54;;;1.17;81.10
42067;BME280;27734;47.028;28.820;2023-02-01T02:19:00;100079.27;;;1.15;80.72
42067;BME280;27734;47.028;28.820;2023-02-01T02:22:00;100081.55;;;1.11;81.49
42067;BME280;27734;47.028;28.820;2023-02-01T02:24:56;100081.34;;;1.07;81.00
42067;BME280;27734;47.028;28.820;2023-02-01T02:27:40;100079.38;;;1.03;81.48
42067;BME280;27734;47.028;28.820;2023-02-01T02:30:25;100082.53;;;0.99;80.84
42067;BME280;27734;47.028;28.820;2023-02-01T02:33:23;100077.87;;;0.94;81.05
42067;BME280;27734;47.028;28.820;2023-02-01T02:36:01;100078.55;;;0.91;81.08
42067;BME280;27734;47.028;28.820;2023-02-01T02:38:44;100080.04;;;0.87;81.28
42067;BME280;27734;47.028;28.820;2023-02-01T02:41:23;100082.31;;;0.83;80.63
42067;BME280;27734;47.028;28.820;2023-02-01T02:44:22;100075.14;;;0.79;80.75
42067;BME280;27734;47.028;28.820;2023-02-01T02:47:21;100085.36;;;0.77;81.02
42067;BME280;27734;47.028;28.820;2023-02-01T02:50:02;100078.39;;;0.76;80.88
42067;BME280;27734;47.028;28.820;2023-02-01T02:52:59;100078.29;;;0.75;81.13
42067;BME280;27734;47.028;28.820;2023-02-01T02:55:52;100088.52;;;0.73;80.69
42067;BME280;27734;47.028;28.820;2023-02-01T02:58:37;100089.23;;;0.70;80.90
42067;BME280;27734;47.028;28.820;2023-02-01T03:01:26;100084.84;;;0.69;80.93
42067;BME280;27734;47.028;28.820;2023-02-01T03:04:16;100085.72;;;0.70;80.84
42067;BME280;27734;47.028;28.820;2023-02-01T03:06:51;100082.25;;;0.69;81.24
42067;BME280;27734;47.028;28.820;2023-02-01T03:09:26;100078.08;;;0.71;81.32
42067;BME280;27734;47.028;28.820;2023-02-01T03:12:01;100076.42;;;0.72;81.00
42067;BME280;27734;47.028;28.820;2023-02-01T03:14:54;100073.12;;;0.75;80.90
42067;BME280;27734;47.028;28.820;2023-02-01T03:17:31;100074.15;;;0.77;81.08
42067;BME280;27734;47.028;28.820;2023-02-01T03:20:07;100069.97;;;0.79;80.97
42067;BME280;27734;47.028;28.820;2023-02-01T03:22:42;100069.30;;;0.81;80.92
42067;BME280;27734;47.028;28.820;2023-02-01T03:25:18;100064.23;;;0.83;80.95
42067;BME280;27734;47.028;28.820;2023-02-01T03:27:54;100068.98;;;0.77;80.76
42067;BME280;27734;47.028;28.820;2023-02-01T03:30:33;100071.36;;;0.74;80.74
42067;BME280;27734;47.028;28.820;2023-02-01T03:33:08;100074.61;;;0.71;80.77
42067;BME280;27734;47.028;28.820;2023-02-01T03:35:47;100075.19;;;0.67;81.35
42067;BME280;27734;47.028;28.820;2023-02-01T03:38:24;100075.29;;;0.68;80.96
42067;BME280;27734;47.028;28.820;2023-02-01T03:41:05;100067.75;;;0.71;80.99
42067;BME280;27734;47.028;28.820;2023-02-01T03:43:45;100065.17;;;0.71;81.03
42067;BME280;27734;47.028;28.820;2023-02-01T03:46:24;100070.33;;;0.71;80.93
42067;BME280;27734;47.028;28.820;2023-02-01T03:48:58;100077.98;;;0.70;80.99
42067;BME280;27734;47.028;28.820;2023-02-01T03:51:31;100071.72;;;0.66;80.68
42067;BME280;27734;47.028;28.820;2023-02-01T03:54:05;100066.34;;;0.63;80.91
42067;BME280;27734;47.028;28.820;2023-02-01T03:56:39;100066.34;;;0.63;81.17
42067;BME280;27734;47.028;28.820;2023-02-01T03:59:14;100066.13;;;0.60;80.83
42067;BME280;27734;47.028;28.820;2023-02-01T04:01:45;100074.45;;;0.56;80.57
42067;BME280;27734;47.028;28.820;2023-02-01T04:04:17;100084.77;;;0.56;80.89
42067;BME280;27734;47.028;28.820;2023-02-01T04:06:51;100078.05;;;0.58;81.37
42067;BME280;27734;47.028;28.820;2023-02-01T04:09:23;100076.25;;;0.57;81.39
42067;BME280;27734;47.028;28.820;2023-02-01T04:11:54;100076.82;;;0.53;80.85
42067;BME280;27734;47.028;28.820;2023-02-01T04:14:25;100072.26;;;0.49;80.78
42067;BME280;27734;47.028;28.820;2023-02-01T04:16:57;100068.69;;;0.47;81.02
42067;BME280;27734;47.028;28.820;2023-02-01T04:19:28;100078.30;;;0.49;81.17
42067;BME280;27734;47.028;28.820;2023-02-01T04:21:59;100075.83;;;0.51;81.07
42067;BME280;27734;47.028;28.820;2023-02-01T04:24:30;100076.92;;;0.54;81.00
42067;BME280;27734;47.028;28.820;2023-02-01T04:27:02;100074.55;;;0.58;81.38
42067;BME280;27734;47.028;28.820;2023-02-01T04:29:33;100077.14;;;0.58;81.05
42067;BME280;27734;47.028;28.820;2023-02-01T04:32:05;100085.80;;;0.58;81.66
42067;BME280;27734;47.028;28.820;2023-02-01T04:34:36;100080.84;;;0.61;80.98
42067;BME280;27734;47.028;28.820;2023-02-01T04:37:08;100079.36;;;0.65;80.70
42067;BME280;27734;47.028;28.820;2023-02-01T04:39:39;100082.25;;;0.69;81.06
42067;BME280;27734;47.028;28.820;2023-02-01T04:42:10;100084.84;;;0.69;81.47
42067;BME280;27734;47.028;28.820;2023-02-01T04:44:42;100086.64;;;0.70;81.62
42067;BME280;27734;47.028;28.820;2023-02-01T04:47:13;100086.03;;;0.75;81.37
42067;BME280;27734;47.028;28.820;2023-02-01T04:49:45;100088.05;;;0.79;81.57
42067;BME280;27734;47.028;28.820;2023-02-01T04:52:16;100088.94;;;0.79;81.20
42067;BME280;27734;47.028;28.820;2023-02-01T04:54:47;100090.53;;;0.77;81.18
42067;BME280;27734;47.028;28.820;2023-02-01T04:57:19;100087.52;;;0.71;81.35
42067;BME280;27734;47.028;28.820;2023-02-01T04:59:50;100088.09;;;0.67;81.26
42067;BME280;27734;47.028;28.820;2023-02-01T05:02:21;100083.74;;;0.66;80.95
42067;BME280;27734;47.028;28.820;2023-02-01T05:04:52;100071.51;;;0.63;81.73
42067;BME280;27734;47.028;28.820;2023-02-01T05:07:25;100074.09;;;0.63;81.62
42067;BME280;27734;47.028;28.820;2023-02-01T05:09:56;100075.69;;;0.61;81.42
42067;BME280;27734;47.028;28.820;2023-02-01T05:12:28;100076.46;;;0.60;81.62
42067;BME280;27734;47.028;28.820;2023-02-01T05:15:17;100070.31;;;0.58;81.51
42067;BME280;27734;47.028;28.820;2023-02-01T05:17:48;100062.35;;;0.55;81.69
42067;BME280;27734;47.028;28.820;2023-02-01T05:20:19;100076.75;;;0.51;81.61
42067;BME280;27734;47.028;28.820;2023-02-01T05:22:51;100081.70;;;0.48;81.33
42067;BME280;27734;47.028;28.820;2023-02-01T05:25:22;100068.48;;;0.44;81.36
42067;BME280;27734;47.028;28.820;2023-02-01T05:27:54;100071.83;;;0.43;81.32
42067;BME280;27734;47.028;28.820;2023-02-01T05:30:25;100069.25;;;0.43;81.84
42067;BME280;27734;47.028;28.820;2023-02-01T05:32:56;100070.84;;;0.41;81.62
42067;BME280;27734;47.028;28.820;2023-02-01T05:35:28;100072.51;;;0.40;81.46
42067;BME280;27734;47.028;28.820;2023-02-01T05:37:59;100069.04;;;0.40;82.07
42067;BME280;27734;47.028;28.820;2023-02-01T05:40:30;100075.90;;;0.39;81.74
42067;BME280;27734;47.028;28.820;2023-02-01T05:43:02;100076.78;;;0.40;81.67
42067;BME280;27734;47.028;28.820;2023-02-01T05:45:33;100072.51;;;0.40;81.73
42067;BME280;27734;47.028;28.820;2023-02-01T05:48:05;100081.27;;;0.42;81.22
42067;BME280;27734;47.028;28.820;2023-02-01T05:50:36;100066.88;;;0.46;81.67
42067;BME280;27734;47.028;28.820;2023-02-01T05:53:12;100080.11;;;0.50;81.43
42067;BME280;27734;47.028;28.820;2023-02-01T05:55:44;100078.52;;;0.52;81.08
42067;BME280;27734;47.028;28.820;2023-02-01T05:58:15;100071.87;;;0.56;81.85
42067;BME280;27734;47.028;28.820;2023-02-01T06:00:46;100069.91;;;0.65;82.15
42067;BME280;27734;47.028;28.820;2023-02-01T06:03:18;100073.23;;;0.76;82.23
42067;BME280;27734;47.028;28.820;2023-02-01T06:05:49;100078.34;;;0.88;82.05
42067;BME280;27734;47.028;28.820;2023-02-01T06:08:20;100080.97;;;1.01;82.84
42067;BME280;27734;47.028;28.820;2023-02-01T06:11:00;100075.59;;;1.12;81.76
42067;BME280;27734;47.028;28.820;2023-02-01T06:13:33;100074.71;;;1.24;81.99
42067;BME280;27734;47.028;28.820;2023-02-01T06:16:05;100061.61;;;1.35;82.03
42067;BME280;27734;47.028;28.820;2023-02-01T06:18:37;100063.20;;;1.46;82.15
42067;BME280;27734;47.028;28.820;2023-02-01T06:21:12;100070.05;;;1.59;82.41
42067;BME280;27734;47.028;28.820;2023-02-01T06:23:53;100073.42;;;1.71;82.11
42067;BME280;27734;47.028;28.820;2023-02-01T06:26:24;100080.10;;;1.81;82.10
42067;BME280;27734;47.028;28.820;2023-02-01T06:28:56;100075.22;;;1.86;82.03
42067;BME280;27734;47.028;28.820;2023-02-01T06:31:29;100079.08;;;1.92;82.21
42067;BME280;27734;47.028;28.820;2023-02-01T06:34:02;100078.69;;;2.00;82.34
42067;BME280;27734;47.028;28.820;2023-02-01T06:36:35;100083.03;;;2.01;81.73
42067;BME280;27734;47.028;28.820;2023-02-01T06:39:08;100082.34;;;2.03;81.46
42067;BME280;27734;47.028;28.820;2023-02-01T06:41:39;100084.53;;;2.10;81.76
42067;BME280;27734;47.028;28.820;2023-02-01T06:44:17;100089.38;;;2.19;82.18
42067;BME280;27734;47.028;28.820;2023-02-01T06:46:49;100077.50;;;2.23;81.97
42067;BME280;27734;47.028;28.820;2023-02-01T06:49:23;100074.41;;;2.28;80.99
42067;BME280;27734;47.028;28.820;2023-02-01T06:51:55;100067.81;;;2.33;81.87
42067;BME280;27734;47.028;28.820;2023-02-01T06:54:30;100070.97;;;2.43;81.18
42067;BME280;27734;47.028;28.820;2023-02-01T06:57:03;100074.66;;;2.46;81.39
42067;BME280;27734;47.028;28.820;2023-02-01T06:59:37;100075.03;;;2.53;81.61
42067;BME280;27734;47.028;28.820;2023-02-01T07:02:11;100076.30;;;2.59;82.11
42067;BME280;27734;47.028;28.820;2023-02-01T07:04:43;100069.69;;;2.64;81.53
42067;BME280;27734;47.028;28.820;2023-02-01T07:07:16;100076.95;;;2.70;81.76
42067;BME280;27734;47.028;28.820;2023-02-01T07:09:52;100080.70;;;2.75;81.09
42067;BME280;27734;47.028;28.820;2023-02-01T07:12:26;100077.31;;;2.76;80.96
42067;BME280;27734;47.028;28.820;2023-02-01T07:14:58;100076.67;;;2.80;81.06
42067;BME280;27734;47.028;28.820;2023-02-01T07:17:29;100079.54;;;2.85;81.60
42067;BME280;27734;47.028;28.820;2023-02-01T07:20:01;100078.84;;;2.87;81.83
42067;BME280;27734;47.028;28.820;2023-02-01T07:22:40;100078.14;;;2.90;81.37
42067;BME280;27734;47.028;28.820;2023-02-01T07:25:14;100070.55;;;2.93;81.76
42067;BME280;27734;47.028;28.820;2023-02-01T07:27:46;100063.84;;;2.97;81.58
42067;BME280;27734;47.028;28.820;2023-02-01T07:30:18;100068.31;;;2.99;81.00
42067;BME280;27734;47.028;28.820;2023-02-01T07:33:00;100071.55;;;3.10;81.19
42067;BME280;27734;47.028;28.820;2023-02-01T07:36:00;100070.19;;;3.17;80.92
42067;BME280;27734;47.028;28.820;2023-02-01T07:38:38;100062.77;;;3.23;80.36
42067;BME280;27734;47.028;28.820;2023-02-01T07:41:35;100064.19;;;3.33;81.00
42067;BME280;27734;47.028;28.820;2023-02-01T07:44:09;100058.64;;;3.41;81.08
42067;BME280;27734;47.028;28.820;2023-02-01T07:46:40;100061.85;;;3.52;80.24
42067;BME280;27734;47.028;28.820;2023-02-01T07:49:13;100055.47;;;3.62;81.25
42067;BME280;27734;47.028;28.820;2023-02-01T07:51:51;100049.88;;;3.71;81.03
42067;BME280;27734;47.028;28.820;2023-02-01T07:54:25;100055.33;;;3.75;80.78
42067;BME280;27734;47.028;28.820;2023-02-01T07:56:59;100062.49;;;3.80;80.80
42067;BME280;27734;47.028;28.820;2023-02-01T07:59:32;100058.35;;;3.83;80.81
42067;BME280;27734;47.028;28.820;2023-02-01T08:02:05;100053.16;;;3.83;80.30
42067;BME280;27734;47.028;28.820;2023-02-01T08:04:36;100054.25;;;3.87;79.60
42067;BME280;27734;47.028;28.820;2023-02-01T08:07:08;100064.05;;;3.92;80.14
42067;BME280;27734;47.028;28.820;2023-02-01T08:09:39;100055.64;;;3.96;79.88
42067;BME280;27734;47.028;28.820;2023-02-01T08:12:11;100048.11;;;4.01;79.20
42067;BME280;27734;47.028;28.820;2023-02-01T08:14:44;100059.70;;;4.08;79.33
42067;BME280;27734;47.028;28.820;2023-02-01T08:17:19;100059.08;;;4.12;80.08
42067;BME280;27734;47.028;28.820;2023-02-01T08:19:53;100056.09;;;4.21;78.61
42067;BME280;27734;47.028;28.820;2023-02-01T08:22:32;100057.23;;;4.26;79.84
42067;BME280;27734;47.028;28.820;2023-02-01T08:25:05;100058.36;;;4.31;79.43
42067;BME280;27734;47.028;28.820;2023-02-01T08:27:37;100048.13;;;4.34;79.34
42067;BME280;27734;47.028;28.820;2023-02-01T08:30:12;100050.81;;;4.36;79.16
42067;BME280;27734;47.028;28.820;2023-02-01T08:32:45;100047.16;;;4.32;78.62
42067;BME280;27734;47.028;28.820;2023-02-01T08:35:18;100043.98;;;4.38;78.76
42067;BME280;27734;47.028;28.820;2023-02-01T08:37:50;100042.70;;;4.46;77.87
42067;BME280;27734;47.028;28.820;2023-02-01T08:40:22;100038.63;;;4.51;78.70
42067;BME280;27734;47.028;28.820;2023-02-01T08:42:54;100041.55;;;4.57;78.08
42067;BME280;27734;47.028;28.820;2023-02-01T08:45:26;100029.84;;;4.65;78.40
42067;BME280;27734;47.028;28.820;2023-02-01T08:47:59;100024.08;;;4.71;78.73
42067;BME280;27734;47.028;28.820;2023-02-01T08:50:31;100020.96;;;4.78;78.26
42067;BME280;27734;47.028;28.820;2023-02-01T08:53:02;100027.55;;;4.88;77.68
42067;BME280;27734;47.028;28.820;2023-02-01T08:55:34;100021.89;;;4.97;78.19
42067;BME280;27734;47.028;28.820;2023-02-01T08:58:05;100024.65;;;5.00;77.49
42067;BME280;27734;47.028;28.820;2023-02-01T09:00:38;100018.88;;;5.06;77.79
42067;BME280;27734;47.028;28.820;2023-02-01T09:03:12;100010.34;;;5.08;77.68
42067;BME280;27734;47.028;28.820;2023-02-01T09:05:43;100008.86;;;5.13;77.56
42067;BME280;27734;47.028;28.820;2023-02-01T09:08:15;100009.97;;;5.18;77.43
42067;BME280;27734;47.028;28.820;2023-02-01T09:10:49;99999.94;;;5.26;77.02
42067;BME280;27734;47.028;28.820;2023-02-01T09:13:20;99995.77;;;5.30;77.05
42067;BME280;27734;47.028;28.820;2023-02-01T09:15:53;99986.20;;;5.29;76.42
42067;BME280;27734;47.028;28.820;2023-02-01T09:18:24;99982.83;;;5.31;76.08
42067;BME280;27734;47.028;28.820;2023-02-01T09:20:59;99974.38;;;5.35;76.66
42067;BME280;27734;47.028;28.820;2023-02-01T09:23:34;99977.48;;;5.46;76.38
42067;BME280;27734;47.028;28.820;2023-02-01T09:26:06;99980.38;;;5.52;76.33
42067;BME280;27734;47.028;28.820;2023-02-01T09:28:38;99973.09;;;5.63;76.04
42067;BME280;27734;47.028;28.820;2023-02-01T09:31:11;99972.56;;;5.70;76.25
42067;BME280;27734;47.028;28.820;2023-02-01T09:33:43;99967.36;;;5.70;76.51
42067;BME280;27734;47.028;28.820;2023-02-01T09:36:16;99964.75;;;5.70;75.70
42067;BME280;27734;47.028;28.820;2023-02-01T09:38:49;99965.84;;;5.75;75.62
42067;BME280;27734;47.028;28.820;2023-02-01T09:41:40;99965.98;;;5.79;75.35
42067;BME280;27734;47.028;28.820;2023-02-01T09:44:29;99956.39;;;5.78;75.33
42067;BME280;27734;47.028;28.820;2023-02-01T09:47:13;99954.73;;;5.80;75.19
42067;BME280;27734;47.028;28.820;2023-02-01T09:49:56;99950.58;;;5.83;74.93
42067;BME280;27734;47.028;28.820;2023-02-01T09:52:34;99946.33;;;5.85;74.31
42067;BME280;27734;47.028;28.820;2023-02-01T09:55:18;99944.74;;;5.89;74.51
42067;BME280;27734;47.028;28.820;2023-02-01T09:58:00;99950.80;;;5.88;73.77
42067;BME280;27734;47.028;28.820;2023-02-01T10:00:36;99950.93;;;5.91;74.16
42067;BME280;27734;47.028;28.820;2023-02-01T10:03:26;99946.25;;;5.84;73.10
42067;BME280;27734;47.028;28.820;2023-02-01T10:06:30;99952.97;;;5.79;73.30
42067;BME280;27734;47.028;28.820;2023-02-01T10:09:19;99940.63;;;5.74;72.50
42067;BME280;27734;47.028;28.820;2023-02-01T10:12:28;99946.67;;;5.73;72.41
42067;BME280;27734;47.028;28.820;2023-02-01T10:15:19;99947.55;;;5.74;72.15
42067;BME280;27734;47.028;28.820;2023-02-01T10:18:07;99946.81;;;5.76;72.67
42067;BME280;27734;47.028;28.820;2023-02-01T10:20:55;99942.13;;;5.69;71.13
42067;BME280;27734;47.028;28.820;2023-02-01T10:23:56;99938.44;;;5.64;71.71
42067;BME280;27734;47.028;28.820;2023-02-01T10:26:44;99949.44;;;5.58;71.51
42067;BME280;27734;47.028;28.820;2023-02-01T10:29:22;99943.28;;;5.56;72.21
42067;BME280;27734;47.028;28.820;2023-02-01T10:31:58;99946.48;;;5.51;71.85
42067;BME280;27734;47.028;28.820;2023-02-01T10:34:36;99936.00;;;5.49;71.73
42067;BME280;27734;47.028;28.820;2023-02-01T10:37:20;99943.59;;;5.45;71.62
42067;BME280;27734;47.028;28.820;2023-02-01T10:40:09;99949.52;;;5.42;71.90
42067;BME280;27734;47.028;28.820;2023-02-01T10:43:07;99941.64;;;5.40;71.72
42067;BME280;27734;47.028;28.820;2023-02-01T10:45:50;99955.64;;;5.43;71.97
42067;BME280;27734;47.028;28.820;2023-02-01T10:48:41;99958.17;;;5.41;71.88
42067;BME280;27734;47.028;28.820;2023-02-01T10:51:29;99947.69;;;5.39;72.22
42067;BME280;27734;47.028;28.820;2023-02-01T10:54:14;99946.70;;;5.37;72.50
42067;BME280;27734;47.028;28.820;2023-02-01T10:56:49;99939.88;;;5.39;72.37
42067;BME280;27734;47.028;28.820;2023-02-01T10:59:27;99931.16;;;5.39;72.70
42067;BME280;27734;47.028;28.820;2023-02-01T11:05:07;99915.91;;;5.47;72.80
42067;BME280;27734;47.028;28.820;2023-02-01T11:07:48;99919.64;;;5.52;73.03
42067;BME280;27734;47.028;28.820;2023-02-01T11:10:35;99916.41;;;5.57;73.05
42067;BME280;27734;47.028;28.820;2023-02-01T11:13:19;99915.02;;;5.64;73.07
42067;BME280;27734;47.028;28.820;2023-02-01T11:15:57;99909.10;;;5.68;72.89
42067;BME280;27734;47.028;28.820;2023-02-01T11:18:35;99918.98;;;5.75;72.92
42067;BME280;27734;47.028;28.820;2023-02-01T11:21:08;99908.15;;;5.86;72.27
42067;BME280;27734;47.028;28.820;2023-02-01T11:23:46;99907.61;;;5.93;72.69
42067;BME280;27734;47.028;28.820;2023-02-01T11:26:23;99902.03;;;6.03;72.69
42067;BME280;27734;47.028;28.820;2023-02-01T11:29:00;99894.42;;;6.08;72.58
42067;BME280;27734;47.028;28.820;2023-02-01T11:31:35;99888.64;;;6.15;72.85
42067;BME280;27734;47.028;28.820;2023-02-01T11:34:20;99887.89;;;6.18;72.37
42067;BME280;27734;47.028;28.820;2023-02-01T11:36:56;99886.30;;;6.21;72.60
42067;BME280;27734;47.028;28.820;2023-02-01T11:39:31;99897.50;;;6.19;72.23
42067;BME280;27734;47.028;28.820;2023-02-01T11:42:14;99900.72;;;6.13;71.71
42067;BME280;27734;47.028;28.820;2023-02-01T11:44:49;99905.66;;;6.07;72.01
42067;BME280;27734;47.028;28.820;2023-02-01T11:47:26;99905.52;;;6.04;72.24
42067;BME280;27734;47.028;28.820;2023-02-01T11:50:14;99912.39;;;6.02;71.95
42067;BME280;27734;47.028;28.820;2023-02-01T11:53:25;99907.92;;;5.99;72.03
42067;BME280;27734;47.028;28.820;2023-02-01T11:56:08;99903.35;;;5.95;71.94
42067;BME280;27734;47.028;28.820;2023-02-01T11:59:00;99909.41;;;5.94;72.01
42067;BME280;27734;47.028;28.820;2023-02-01T12:01:52;99900.75;;;5.95;71.68
42067;BME280;27734;47.028;28.820;2023-02-01T12:07:39;99899.06;;;5.96;71.29
42067;BME280;27734;47.028;28.820;2023-02-01T12:10:16;99893.11;;;5.98;69.75
42067;BME280;27734;47.028;28.820;2023-02-01T12:12:56;99900.17;;;6.01;70.65
42067;BME280;27734;47.028;28.820;2023-02-01T12:15:46;99891.69;;;6.05;71.01
42067;BME280;27734;47.028;28.820;2023-02-01T12:18:39;99894.36;;;6.06;70.49
42067;BME280;27734;47.028;28.820;2023-02-01T12:21:51;99891.41;;;5.99;70.77
42067;BME280;27734;47.028;28.820;2023-02-01T12:24:46;99892.05;;;5.94;70.71
42067;BME280;27734;47.028;28.820;2023-02-01T12:27:36;99898.98;;;5.94;70.58
42067;BME280;27734;47.028;28.820;2023-02-01T12:33:31;99906.06;;;5.97;70.36
42067;BME280;27734;47.028;28.820;2023-02-01T12:36:14;99899.16;;;5.97;70.14
42067;BME280;27734;47.028;28.820;2023-02-01T12:39:00;99906.12;;;5.98;70.11
42067;BME280;27734;47.028;28.820;2023-02-01T12:41:49;99909.58;;;5.97;70.05
42067;BME280;27734;47.028;28.820;2023-02-01T12:44:29;99913.06;;;5.98;69.98
42067;BME280;27734;47.028;28.820;2023-02-01T12:47:09;99909.58;;;5.97;70.44
42067;BME280;27734;47.028;28.820;2023-02-01T12:49:48;99907.85;;;5.98;70.15
42067;BME280;27734;47.028;28.820;2023-02-01T12:52:26;99906.88;;;5.96;70.56
42067;BME280;27734;47.028;28.820;2023-02-01T12:55:20;99906.80;;;5.94;70.24
42067;BME280;27734;47.028;28.820;2023-02-01T12:58:06;99905.75;;;5.90;69.98
42067;BME280;27734;47.028;28.820;2023-02-01T13:00:49;99905.68;;;5.89;70.17
42067;BME280;27734;47.028;28.820;2023-02-01T13:03:32;99904.73;;;5.87;70.01
42067;BME280;27734;47.028;28.820;2023-02-01T13:06:12;99903.72;;;5.83;69.73
42067;BME280;27734;47.028;28.820;2023-02-01T13:08:50;99902.73;;;5.81;70.36
42067;BME280;27734;47.028;28.820;2023-02-01T13:11:26;99907.20;;;5.84;70.18
42067;BME280;27734;47.028;28.820;2023-02-01T13:14:03;99910.75;;;5.86;70.00
42067;BME280;27734;47.028;28.820;2023-02-01T13:16:40;99911.66;;;5.86;70.16
42067;BME280;27734;47.028;28.820;2023-02-01T13:19:16;99915.22;;;5.88;70.12
42067;BME280;27734;47.028;28.820;2023-02-01T13:22:12;99915.36;;;5.91;70.24
42067;BME280;27734;47.028;28.820;2023-02-01T13:24:50;99905.89;;;5.93;69.97
42067;BME280;27734;47.028;28.820;2023-02-01T13:27:28;99913.70;;;5.93;69.71
42067;BME280;27734;47.028;28.820;2023-02-01T13:30:10;99911.94;;;5.92;69.37
42067;BME280;27734;47.028;28.820;2023-02-01T13:33:05;99915.36;;;5.91;69.68
42067;BME280;27734;47.028;28.820;2023-02-01T13:35:47;99907.34;;;5.87;68.53
42067;BME280;27734;47.028;28.820;2023-02-01T13:39:09;99909.73;;;5.82;68.95
42067;BME280;27734;47.028;28.820;2023-02-01T13:41:57;99909.13;;;5.88;69.09
42067;BME280;27734;47.028;28.820;2023-02-01T13:44:36;99917.01;;;5.89;68.40
42067;BME280;27734;47.028;28.820;2023-02-01T13:47:21;99909.87;;;5.85;68.71
42067;BME280;27734;47.028;28.820;2023-02-01T13:49:52;99909.87;;;5.85;68.68
42067;BME280;27734;47.028;28.820;2023-02-01T13:52:37;99910.02;;;5.88;68.88
42067;BME280;27734;47.028;28.820;2023-02-01T14:02:47;99911.39;;;5.80;68.81